< < Back
Terminal Aerodrome Forecast


Current Version              Previous Versions:   1  2  3  4  5  6  7  8  9  

Terminal Aerodrome Forecast

347
FTUS42 KCAE 271432 AAA
TAFCAE
TAF AMD
KCAE 271432Z 2715/2812 VRB04KT P6SM SCT070
     FM271600 13008KT P6SM SCT060
     FM280300 VRB03KT P6SM SCT060=

Latest METAR

276
SAUS80 KWBC 280000
MTRCAE
METAR KCAE 272356Z 12008KT 10SM CLR 28/14 A3005 RMK AO2 SLP171 T02830139
10317 20283 55004


USA.gov is the U.S. government's official web portal to all federal, state and local government web resources and services.